createdAt,value
2019-03-22T00:00:22.218Z,102212.28
2019-03-22T00:02:51.699Z,102218.60
2019-03-22T00:05:21.205Z,102223.27
2019-03-22T00:07:50.676Z,102220.25
2019-03-22T00:10:20.176Z,102216.69
2019-03-22T00:12:49.648Z,102224.34
2019-03-22T00:15:19.137Z,102213.91
2019-03-22T00:17:48.773Z,102211.45
2019-03-22T00:20:18.322Z,102209.82
2019-03-22T00:22:47.810Z,102211.74
2019-03-22T00:25:17.259Z,102207.34
2019-03-22T00:27:48.425Z,102211.73
2019-03-22T00:30:18.127Z,102210.10
2019-03-22T00:32:47.657Z,102213.92
2019-03-22T00:35:17.132Z,102211.73
2019-03-22T00:37:46.690Z,102208.67
2019-03-22T00:40:17.717Z,102207.31
2019-03-22T00:42:47.243Z,102212.25
2019-03-22T00:45:16.879Z,102210.05
2019-03-22T00:47:46.394Z,102211.97
2019-03-22T00:50:16.019Z,102213.89
2019-03-22T00:52:45.504Z,102207.85
2019-03-22T00:55:15.043Z,102214.43
2019-03-22T00:57:44.522Z,102213.88
2019-03-22T01:00:15.629Z,102215.23
2019-03-22T01:02:45.121Z,102203.44
2019-03-22T01:05:15.409Z,102210.55
2019-03-22T01:07:45.087Z,102205.61
2019-03-22T01:10:15.472Z,102204.25
2019-03-22T01:12:45.095Z,102203.70
2019-03-22T01:15:15.069Z,102196.55
2019-03-22T01:17:45.814Z,102198.74
2019-03-22T01:20:15.530Z,102189.98
2019-03-22T01:22:45.058Z,102189.69
2019-03-22T01:25:14.707Z,102195.70
2019-03-22T01:27:44.318Z,102193.78
2019-03-22T01:30:18.610Z,102191.59
2019-03-22T01:32:49.773Z,102194.30
2019-03-22T01:35:19.337Z,102195.41
2019-03-22T01:37:48.897Z,102192.64
2019-03-22T01:40:18.414Z,102193.19
2019-03-22T01:42:47.891Z,102190.18
2019-03-22T01:45:17.675Z,102188.80
2019-03-22T01:47:47.151Z,102191.25
2019-03-22T01:50:18.431Z,102194.50
2019-03-22T01:52:47.939Z,102199.42
2019-03-22T01:55:17.390Z,102195.33
2019-03-22T01:57:52.947Z,102197.23
2019-03-22T02:00:18.942Z,102200.23
2019-03-22T02:02:48.412Z,102196.93
2019-03-22T02:05:18.029Z,102197.47
2019-03-22T02:07:47.551Z,102199.40
2019-03-22T02:10:17.178Z,102199.37
2019-03-22T02:12:46.719Z,102190.33
2019-03-22T02:15:17.116Z,102192.25
2019-03-22T02:17:46.807Z,102188.69
2019-03-22T02:20:18.661Z,102184.55
2019-03-22T02:22:48.306Z,102189.75
2019-03-22T02:25:17.969Z,102190.00
2019-03-22T02:27:47.494Z,102187.80
2019-03-22T02:30:18.918Z,102181.23
2019-03-22T02:32:48.457Z,102179.59
2019-03-22T02:35:28.293Z,102170.81
2019-03-22T02:37:49.183Z,102173.27
2019-03-22T02:40:18.734Z,102175.45
2019-03-22T02:42:48.227Z,102170.23
2019-03-22T02:45:17.891Z,102177.89
2019-03-22T02:47:47.344Z,102169.40
2019-03-22T02:50:19.175Z,102165.85
2019-03-22T02:52:48.327Z,102164.20
2019-03-22T02:55:19.506Z,102160.91
2019-03-22T02:57:49.007Z,102171.02
2019-03-22T03:00:19.640Z,102167.20
2019-03-22T03:02:49.188Z,102173.77
2019-03-22T03:05:19.330Z,102169.37
2019-03-22T03:07:48.859Z,102169.09
2019-03-22T03:10:18.386Z,102164.16
2019-03-22T03:12:48.176Z,102156.23
2019-03-22T03:15:18.785Z,102153.21
2019-03-22T03:17:48.570Z,102153.19
2019-03-22T03:20:20.154Z,102150.20
2019-03-22T03:22:49.779Z,102148.52
2019-03-22T03:25:19.454Z,102143.33
2019-03-22T03:27:49.172Z,102146.06
2019-03-22T03:30:22.852Z,102147.98
2019-03-22T03:32:52.293Z,102145.78
2019-03-22T03:35:21.757Z,102144.41
2019-03-22T03:37:51.902Z,102147.95
2019-03-22T03:40:21.491Z,102154.80
2019-03-22T03:42:51.000Z,102149.89
2019-03-22T03:45:38.647Z,102147.95
2019-03-22T03:48:11.418Z,102147.68
2019-03-22T03:50:40.925Z,102142.77
2019-03-22T03:53:10.552Z,102149.86
2019-03-22T03:55:40.078Z,102148.77
2019-03-22T03:58:09.579Z,102150.39
2019-03-22T04:00:39.096Z,102150.11
2019-03-22T04:03:08.559Z,102144.36
2019-03-22T04:05:38.043Z,102143.80
2019-03-22T04:08:07.573Z,102145.45
2019-03-22T04:10:38.667Z,102149.00
2019-03-22T04:13:08.154Z,102149.25
2019-03-22T04:15:37.693Z,102148.69
2019-03-22T04:18:07.171Z,102152.80
2019-03-22T04:20:36.715Z,102160.44
2019-03-22T04:23:06.266Z,102169.46
2019-03-22T04:25:35.731Z,102167.25
2019-03-22T04:28:05.320Z,102163.95
2019-03-22T04:30:34.819Z,102169.16
2019-03-22T04:33:06.549Z,102174.34
2019-03-22T04:35:35.474Z,102160.35
2019-03-22T04:38:06.168Z,102159.27
2019-03-22T04:40:35.654Z,102164.73
2019-03-22T04:43:05.251Z,102164.45
2019-03-22T04:45:36.783Z,102160.08
2019-03-22T04:48:28.757Z,102165.55
2019-03-22T04:51:01.174Z,102155.97
2019-03-22T04:53:35.494Z,102158.70
2019-03-22T04:56:09.810Z,102158.42
2019-03-22T04:58:41.811Z,102158.42
2019-03-22T05:01:13.601Z,102158.42
2019-03-22T05:03:44.088Z,102158.42
2019-03-22T05:06:14.977Z,102156.78
2019-03-22T05:08:45.075Z,102153.20
2019-03-22T05:11:15.906Z,102160.60
2019-03-22T05:13:48.202Z,102155.41
2019-03-22T05:16:19.749Z,102157.86
2019-03-22T05:18:50.072Z,102157.86
2019-03-22T05:21:23.238Z,102152.11
2019-03-22T05:23:55.531Z,102160.04
2019-03-22T05:26:27.699Z,102165.79
2019-03-22T05:28:57.568Z,102162.77
2019-03-22T05:31:31.767Z,102157.02
2019-03-22T05:34:01.370Z,102153.20
2019-03-22T05:36:30.866Z,102148.82
2019-03-22T05:39:00.438Z,102143.59
2019-03-22T05:41:30.015Z,102141.70
2019-03-22T05:43:59.480Z,102147.17
2019-03-22T05:46:28.964Z,102148.54
2019-03-22T05:48:58.450Z,102150.19
2019-03-22T05:51:27.939Z,102154.81
2019-03-22T05:53:57.410Z,102150.19
2019-03-22T05:56:26.892Z,102157.30
2019-03-22T05:58:56.376Z,102153.77
2019-03-22T06:01:25.874Z,102160.31
2019-03-22T06:03:55.331Z,102158.14
2019-03-22T06:06:24.816Z,102163.89
2019-03-22T06:08:54.278Z,102175.12
2019-03-22T06:11:23.781Z,102171.30
2019-03-22T06:13:54.810Z,102174.31
2019-03-22T06:16:24.332Z,102172.13
2019-03-22T06:18:53.811Z,102168.31
2019-03-22T06:21:23.301Z,102166.94
2019-03-22T06:23:52.770Z,102165.89
2019-03-22T06:26:22.259Z,102166.72
2019-03-22T06:28:51.742Z,102168.41
2019-03-22T06:31:21.202Z,102167.59
2019-03-22T06:33:50.759Z,102155.59
2019-03-22T06:36:20.213Z,102172.28
2019-03-22T06:38:51.410Z,102165.47
2019-03-22T06:41:20.832Z,102168.82
2019-03-22T06:43:50.452Z,102172.95
2019-03-22T06:46:19.907Z,102175.71
2019-03-22T06:48:49.392Z,102158.17
2019-03-22T06:51:18.928Z,102177.12
2019-03-22T06:53:48.447Z,102176.08
2019-03-22T06:56:17.902Z,102177.48
2019-03-22T06:58:47.369Z,102182.72
2019-03-22T07:01:16.893Z,102183.04
2019-03-22T07:03:46.380Z,102184.16
2019-03-22T07:06:15.905Z,102193.77
2019-03-22T07:08:45.425Z,102175.42
2019-03-22T07:11:14.905Z,102182.59
2019-03-22T07:13:44.378Z,102192.19
2019-03-22T07:16:13.916Z,102186.45
2019-03-22T07:18:43.478Z,102187.84
2019-03-22T07:21:13.045Z,102191.16
2019-03-22T07:23:42.631Z,102196.36
2019-03-22T07:26:12.141Z,102194.45
2019-03-22T07:28:41.599Z,102196.88
2019-03-22T07:31:11.130Z,102195.77
2019-03-22T07:33:40.634Z,102192.16
2019-03-22T07:36:10.131Z,102192.67
2019-03-22T07:38:39.657Z,102189.08
2019-03-22T07:41:09.137Z,102183.81
2019-03-22T07:43:38.664Z,102187.05
2019-03-22T07:46:08.150Z,102188.34
2019-03-22T07:48:37.719Z,102177.02
2019-03-22T07:51:07.252Z,102186.23
2019-03-22T07:53:36.826Z,102177.38
2019-03-22T07:56:06.380Z,102179.73
2019-03-22T07:58:35.977Z,102184.03
2019-03-22T08:01:05.740Z,102185.53
2019-03-22T08:03:35.247Z,102183.46
2019-03-22T08:06:05.014Z,102181.08
2019-03-22T08:08:34.599Z,102180.91
2019-03-22T08:11:04.168Z,102182.94
2019-03-22T08:13:33.747Z,102170.66
2019-03-22T08:16:03.249Z,102176.55
2019-03-22T08:18:32.783Z,102186.80
2019-03-22T08:21:02.440Z,102173.39
2019-03-22T08:23:31.906Z,102178.42
2019-03-22T08:26:01.439Z,102175.75
2019-03-22T08:28:30.962Z,102177.72
2019-03-22T08:31:00.456Z,102173.06
2019-03-22T08:33:29.965Z,102175.83
2019-03-22T08:35:59.506Z,102172.31
2019-03-22T08:38:28.995Z,102165.13
2019-03-22T08:40:58.483Z,102171.48
2019-03-22T08:43:28.008Z,102165.17
2019-03-22T08:45:57.467Z,102157.73
2019-03-22T08:48:27.029Z,102164.06
2019-03-22T08:50:56.468Z,102153.88
2019-03-22T08:53:26.090Z,102163.01
2019-03-22T08:55:55.584Z,102166.27
2019-03-22T08:58:25.050Z,102170.70
2019-03-22T09:00:57.693Z,102166.81
2019-03-22T09:03:25.950Z,102163.50
2019-03-22T09:05:55.437Z,102159.61
2019-03-22T09:08:24.948Z,102157.66
2019-03-22T09:10:54.376Z,102154.24
2019-03-22T09:13:24.001Z,102147.80
2019-03-22T09:15:53.611Z,102141.84
2019-03-22T09:18:23.355Z,102137.30
2019-03-22T09:20:52.850Z,102143.80
2019-03-22T09:23:22.329Z,102132.61
2019-03-22T09:25:51.888Z,102131.33
2019-03-22T09:28:21.426Z,102123.99
2019-03-22T09:30:51.094Z,102125.95
2019-03-22T09:33:20.657Z,102114.95
2019-03-22T09:35:50.273Z,102116.34
2019-03-22T09:38:19.756Z,102113.34
2019-03-22T09:40:49.266Z,102116.68
2019-03-22T09:43:18.737Z,102109.77
2019-03-22T09:45:48.345Z,102116.73
2019-03-22T09:48:17.895Z,102108.41
2019-03-22T09:50:47.403Z,102099.19
2019-03-22T09:53:16.904Z,102096.98
2019-03-22T09:55:46.438Z,102100.86
2019-03-22T09:58:15.960Z,102088.66
2019-03-22T10:00:48.363Z,102087.86
2019-03-22T10:03:16.729Z,102085.15
2019-03-22T10:05:46.286Z,102081.08
2019-03-22T10:08:15.770Z,102078.34
2019-03-22T10:10:45.322Z,102075.61
2019-03-22T10:13:14.810Z,102075.66
2019-03-22T10:15:44.428Z,102073.16
2019-03-22T10:18:13.987Z,102072.98
2019-03-22T10:20:43.620Z,102063.52
2019-03-22T10:23:13.150Z,102058.30
2019-03-22T10:25:42.721Z,102051.14
2019-03-22T10:28:12.369Z,102051.70
2019-03-22T10:30:41.986Z,102046.86
2019-03-22T10:33:22.198Z,102034.77
2019-03-22T10:35:43.035Z,102037.55
2019-03-22T10:38:16.390Z,102039.73
2019-03-22T10:40:43.737Z,102030.80
2019-03-22T10:43:13.234Z,102028.22
2019-03-22T10:45:42.725Z,102024.03
2019-03-22T10:48:12.222Z,102027.06
2019-03-22T10:50:41.721Z,102017.51
2019-03-22T10:53:11.289Z,102024.73
2019-03-22T10:55:40.760Z,102019.13
2019-03-22T10:58:20.782Z,102014.09
2019-03-22T11:00:41.595Z,102014.90
2019-03-22T11:03:11.250Z,102002.53
2019-03-22T11:05:40.719Z,101999.14
2019-03-22T11:08:10.378Z,101998.52
2019-03-22T11:10:39.879Z,101995.46
2019-03-22T11:13:09.396Z,101995.91
2019-03-22T11:15:48.088Z,101995.28
2019-03-22T11:18:10.195Z,101998.19
2019-03-22T11:20:39.825Z,101999.17
2019-03-22T11:23:09.339Z,101997.05
2019-03-22T11:25:39.056Z,101992.66
2019-03-22T11:28:08.629Z,101992.84
2019-03-22T11:30:38.167Z,101985.57
2019-03-22T11:33:07.696Z,101982.08
2019-03-22T11:35:37.445Z,101985.06
2019-03-22T11:38:07.076Z,101982.20
2019-03-22T11:40:36.556Z,101968.39
2019-03-22T11:43:08.875Z,101962.73
2019-03-22T11:45:37.683Z,101962.17
2019-03-22T11:48:07.471Z,101951.61
2019-03-22T11:50:37.093Z,101947.22
2019-03-22T11:53:06.637Z,101948.20
2019-03-22T11:55:36.145Z,101943.94
2019-03-22T11:58:05.757Z,101942.47
2019-03-22T12:00:35.300Z,101944.53
2019-03-22T12:03:05.333Z,101934.44
2019-03-22T12:05:40.207Z,101939.17
2019-03-22T12:08:06.415Z,101932.45
2019-03-22T12:10:35.953Z,101924.57
2019-03-22T12:13:05.708Z,101920.07
2019-03-22T12:15:35.245Z,101919.38
2019-03-22T12:18:04.914Z,101913.47
2019-03-22T12:20:34.396Z,101905.02
2019-03-22T12:23:03.971Z,101907.98
2019-03-22T12:25:33.710Z,101912.09
2019-03-22T12:28:03.235Z,101890.77
2019-03-22T12:30:32.732Z,101893.61
2019-03-22T12:33:02.308Z,101888.62
2019-03-22T12:35:31.802Z,101880.20
2019-03-22T12:38:01.356Z,101878.59
2019-03-22T12:40:30.988Z,101877.40
2019-03-22T12:43:00.454Z,101867.59
2019-03-22T12:45:31.965Z,101859.83
2019-03-22T12:48:01.608Z,101856.28
2019-03-22T12:50:31.107Z,101853.77
2019-03-22T12:53:00.677Z,101853.81
2019-03-22T12:55:31.861Z,101856.08
2019-03-22T12:58:01.381Z,101844.72
2019-03-22T13:00:30.973Z,101840.34
2019-03-22T13:03:00.547Z,101837.61
2019-03-22T13:05:30.094Z,101839.05
2019-03-22T13:07:59.737Z,101825.92
2019-03-22T13:10:30.050Z,101824.19
2019-03-22T13:12:59.536Z,101813.83
2019-03-22T13:15:29.105Z,101813.29
2019-03-22T13:17:58.586Z,101807.14
2019-03-22T13:20:28.089Z,101808.79
2019-03-22T13:22:57.569Z,101801.66
2019-03-22T13:25:27.149Z,101794.52
2019-03-22T13:27:56.639Z,101793.19
2019-03-22T13:30:32.989Z,101790.80
2019-03-22T13:33:02.591Z,101789.62
2019-03-22T13:35:32.077Z,101784.22
2019-03-22T13:38:01.569Z,101789.65
2019-03-22T13:40:31.037Z,101784.25
2019-03-22T13:43:00.547Z,101784.31
2019-03-22T13:45:30.236Z,101774.91
2019-03-22T13:47:59.791Z,101767.92
2019-03-22T13:50:29.364Z,101767.41
2019-03-22T13:52:58.871Z,101758.80
2019-03-22T13:55:28.367Z,101759.28
2019-03-22T13:57:57.832Z,101753.48
2019-03-22T14:00:27.477Z,101752.55
2019-03-22T14:03:03.250Z,101759.02
2019-03-22T14:05:28.289Z,101756.84
2019-03-22T14:07:57.789Z,101746.03
2019-03-22T14:10:30.165Z,101745.42
2019-03-22T14:13:01.589Z,101750.88
2019-03-22T14:15:31.323Z,101746.51
2019-03-22T14:18:01.231Z,101737.31
2019-03-22T14:20:31.180Z,101726.71
2019-03-22T14:23:00.735Z,101733.73
2019-03-22T14:25:30.265Z,101727.71
2019-03-22T14:27:59.760Z,101725.73
2019-03-22T14:30:29.409Z,101726.15
2019-03-22T14:32:58.990Z,101728.34
2019-03-22T14:35:28.683Z,101725.53
2019-03-22T14:37:58.290Z,101721.11
2019-03-22T14:40:27.907Z,101715.69
2019-03-22T14:42:57.692Z,101710.44
2019-03-22T14:45:27.341Z,101704.61
2019-03-22T14:47:57.087Z,101709.80
2019-03-22T14:50:26.597Z,101704.19
2019-03-22T14:52:56.177Z,101697.16
2019-03-22T14:55:25.701Z,101699.18
2019-03-22T14:57:55.242Z,101703.20
2019-03-22T15:00:24.736Z,101696.39
2019-03-22T15:02:54.303Z,101693.21
2019-03-22T15:05:23.835Z,101693.63
2019-03-22T15:07:53.282Z,101690.00
2019-03-22T15:10:22.936Z,101689.20
2019-03-22T15:12:52.619Z,101681.92
2019-03-22T15:15:27.786Z,101673.50
2019-03-22T15:18:07.748Z,101677.08
2019-03-22T15:20:56.826Z,101672.45
2019-03-22T15:23:34.950Z,101672.02
2019-03-22T15:26:10.087Z,101671.19
2019-03-22T15:28:41.222Z,101670.13
2019-03-22T15:31:28.546Z,101667.88
2019-03-22T15:33:59.689Z,101669.42
2019-03-22T15:36:30.798Z,101666.97
2019-03-22T15:39:02.037Z,101661.66
2019-03-22T15:41:31.593Z,101660.40
2019-03-22T15:44:01.154Z,101653.73
2019-03-22T15:46:30.714Z,101655.69
2019-03-22T15:49:00.267Z,101651.82
2019-03-22T15:51:29.794Z,101651.58
2019-03-22T15:53:59.364Z,101647.44
2019-03-22T15:56:28.829Z,101647.20
2019-03-22T15:58:58.325Z,101644.95
2019-03-22T16:01:27.838Z,101649.50
2019-03-22T16:03:57.264Z,101651.66
2019-03-22T16:06:26.859Z,101652.00
2019-03-22T16:08:56.494Z,101645.51
2019-03-22T16:11:25.977Z,101641.64
2019-03-22T16:13:55.463Z,101645.59
2019-03-22T16:16:24.987Z,101643.70
2019-03-22T16:18:54.501Z,101642.85
2019-03-22T16:21:23.996Z,101647.17
2019-03-22T16:23:53.550Z,101644.27
2019-03-22T16:26:23.036Z,101645.79
2019-03-22T16:28:52.506Z,101640.51
2019-03-22T16:31:22.017Z,101641.20
2019-03-22T16:33:54.873Z,101647.49
2019-03-22T16:36:22.675Z,101640.56
2019-03-22T16:38:52.168Z,101642.89
2019-03-22T16:41:21.789Z,101644.19
2019-03-22T16:43:51.284Z,101646.48
2019-03-22T16:46:20.760Z,101643.78
2019-03-22T16:48:50.264Z,101636.66
2019-03-22T16:51:19.749Z,101635.36
2019-03-22T16:53:49.295Z,101641.06
2019-03-22T16:56:18.894Z,101641.16
2019-03-22T16:58:48.453Z,101632.25
2019-03-22T17:01:25.955Z,101638.52
2019-03-22T17:04:04.112Z,101645.36
2019-03-22T17:06:28.373Z,101644.05
2019-03-22T17:08:57.846Z,101634.34
2019-03-22T17:11:27.402Z,101640.60
2019-03-22T17:13:57.054Z,101644.66
2019-03-22T17:16:26.512Z,101643.73
2019-03-22T17:18:56.119Z,101636.61
2019-03-22T17:21:25.625Z,101634.81
2019-03-22T17:23:55.119Z,101640.27
2019-03-22T17:26:24.685Z,101633.52
2019-03-22T17:28:54.262Z,101642.33
2019-03-22T17:31:23.732Z,101640.56
2019-03-22T17:33:53.209Z,101634.34
2019-03-22T17:36:22.789Z,101636.52
2019-03-22T17:38:52.256Z,101640.71
2019-03-22T17:41:21.837Z,101639.06
2019-03-22T17:43:51.294Z,101633.44
2019-03-22T17:46:20.808Z,101644.16
2019-03-22T17:48:50.311Z,101641.25
2019-03-22T17:53:45.162Z,101637.42
2019-03-22T17:56:14.701Z,101646.87
2019-03-22T17:58:44.211Z,101641.27
2019-03-22T18:01:13.696Z,101647.18
2019-03-22T18:03:43.342Z,101645.52
2019-03-22T18:06:13.397Z,101643.71
2019-03-22T18:08:42.963Z,101653.50
2019-03-22T18:11:12.503Z,101654.12
2019-03-22T18:13:41.967Z,101655.32
2019-03-22T18:16:11.456Z,101652.89
2019-03-22T18:18:40.974Z,101654.59
2019-03-22T18:21:10.454Z,101654.36
2019-03-22T18:23:40.019Z,101653.28
2019-03-22T18:26:09.602Z,101658.22
2019-03-22T18:28:39.126Z,101663.40
2019-03-22T18:31:08.645Z,101669.57
2019-03-22T18:33:38.110Z,101672.95
2019-03-22T18:36:07.635Z,101671.36
2019-03-22T18:38:37.142Z,101676.49
2019-03-22T18:41:07.671Z,101677.30
2019-03-22T18:43:37.146Z,101680.11
2019-03-22T18:46:06.807Z,101680.34
2019-03-22T18:48:36.331Z,101686.71
2019-03-22T18:51:06.306Z,101681.00
2019-03-22T18:53:35.801Z,101680.09
2019-03-22T18:56:05.406Z,101686.08
2019-03-22T18:58:40.824Z,101687.59
2019-03-22T19:01:10.314Z,101693.01
2019-03-22T19:03:39.989Z,101700.02
2019-03-22T19:06:09.555Z,101700.70
2019-03-22T19:08:39.112Z,101704.13
2019-03-22T19:11:08.720Z,101701.45
2019-03-22T19:13:38.214Z,101699.02
2019-03-22T19:16:07.691Z,101698.48
2019-03-22T19:18:37.189Z,101698.22
2019-03-22T19:21:06.673Z,101703.52
2019-03-22T19:23:36.181Z,101709.03
2019-03-22T19:26:05.733Z,101712.36
2019-03-22T19:28:35.501Z,101697.94
2019-03-22T19:31:05.136Z,101697.66
2019-03-22T19:33:34.627Z,101693.47
2019-03-22T19:36:04.157Z,101695.65
2019-03-22T19:38:33.662Z,101703.10
2019-03-22T19:41:03.348Z,101696.09
2019-03-22T19:43:32.814Z,101696.62
2019-03-22T19:46:02.356Z,101693.27
2019-03-22T19:48:31.882Z,101686.55
2019-03-22T19:51:01.359Z,101693.10
2019-03-22T19:53:31.018Z,101697.66
2019-03-22T19:56:00.476Z,101700.89
2019-03-22T19:58:30.022Z,101700.49
2019-03-22T20:00:59.523Z,101702.84
2019-03-22T20:03:28.982Z,101704.35
2019-03-22T20:05:58.553Z,101711.94
2019-03-22T20:08:28.146Z,101717.34
2019-03-22T20:10:57.682Z,101711.40
2019-03-22T20:13:27.240Z,101711.49
2019-03-22T20:15:56.742Z,101719.66
2019-03-22T20:18:26.296Z,101724.17
2019-03-22T20:20:55.960Z,101720.41
2019-03-22T20:23:25.440Z,101722.16
2019-03-22T20:25:54.960Z,101715.88
2019-03-22T20:28:24.461Z,101713.25
2019-03-22T20:30:54.016Z,101716.63
2019-03-22T20:33:23.660Z,101711.73
2019-03-22T20:35:53.234Z,101712.11
2019-03-22T20:38:22.729Z,101713.53
2019-03-22T20:40:52.238Z,101713.03
2019-03-22T20:43:21.815Z,101711.22
2019-03-22T20:45:51.326Z,101716.23
2019-03-22T20:48:21.018Z,101707.20
2019-03-22T20:50:50.566Z,101709.74
2019-03-22T20:53:22.067Z,101709.79
2019-03-22T20:55:51.430Z,101711.78
2019-03-22T20:58:20.996Z,101714.04
2019-03-22T21:00:50.551Z,101713.28
2019-03-22T21:03:20.058Z,101712.02
2019-03-22T21:05:49.546Z,101712.63
2019-03-22T21:08:19.006Z,101711.33
2019-03-22T21:10:48.569Z,101713.58
2019-03-22T21:13:18.133Z,101710.61
2019-03-22T21:15:47.633Z,101708.72
2019-03-22T21:18:17.109Z,101695.30
2019-03-22T21:20:46.627Z,101701.11
2019-03-22T21:23:16.155Z,101696.75
2019-03-22T21:25:45.654Z,101698.75
2019-03-22T21:28:15.200Z,101697.41
2019-03-22T21:30:44.725Z,101695.84
2019-03-22T21:33:16.012Z,101699.73
2019-03-22T21:35:45.638Z,101692.88
2019-03-22T21:38:15.795Z,101695.70
2019-03-22T21:40:45.500Z,101701.21
2019-03-22T21:43:14.965Z,101696.56
2019-03-22T21:45:44.441Z,101707.34
2019-03-22T21:48:14.190Z,101701.83
2019-03-22T21:50:43.748Z,101698.49
2019-03-22T21:53:13.263Z,101703.20
2019-03-22T21:55:42.768Z,101707.34
2019-03-22T21:58:12.326Z,101701.00
2019-03-22T22:00:41.904Z,101707.05
2019-03-22T22:03:11.380Z,101703.50
2019-03-22T22:05:47.813Z,101699.66
2019-03-22T22:08:12.258Z,101702.48
2019-03-22T22:10:41.822Z,101704.41
2019-03-22T22:13:11.600Z,101704.47
2019-03-22T22:15:41.090Z,101698.99
2019-03-22T22:18:10.560Z,101703.12
2019-03-22T22:20:40.054Z,101702.88
2019-03-22T22:23:09.559Z,101699.86
2019-03-22T22:25:39.073Z,101698.80
2019-03-22T22:28:08.622Z,101695.80
2019-03-22T22:30:38.140Z,101695.83
2019-03-22T22:33:07.662Z,101706.34
2019-03-22T22:35:37.153Z,101705.28
2019-03-22T22:38:06.659Z,101705.32
2019-03-22T22:40:36.176Z,101704.02
2019-03-22T22:43:05.733Z,101709.55
2019-03-22T22:45:35.912Z,101713.17
2019-03-22T22:48:05.530Z,101707.19
2019-03-22T22:50:35.052Z,101713.88
2019-03-22T22:53:04.641Z,101708.21
2019-03-22T22:55:35.846Z,101714.08
2019-03-22T22:58:05.496Z,101703.15
2019-03-22T23:00:35.601Z,101701.83
2019-03-22T23:03:05.176Z,101706.31
2019-03-22T23:05:34.741Z,101706.66
2019-03-22T23:08:04.585Z,101710.34
2019-03-22T23:10:34.057Z,101699.95
2019-03-22T23:13:03.584Z,101707.45
2019-03-22T23:15:33.232Z,101720.19
2019-03-22T23:18:02.880Z,101719.16
2019-03-22T23:20:32.521Z,101715.63
2019-03-22T23:23:01.993Z,101714.59
2019-03-22T23:25:31.678Z,101716.31
2019-03-22T23:28:01.168Z,101716.66
2019-03-22T23:30:30.633Z,101719.17
2019-03-22T23:33:00.137Z,101720.09
2019-03-22T23:35:29.852Z,101718.76
2019-03-22T23:37:59.370Z,101722.97
2019-03-22T23:40:28.883Z,101725.80
2019-03-22T23:42:58.348Z,101725.88
2019-03-22T23:45:27.843Z,101726.47
2019-03-22T23:47:57.403Z,101729.27
2019-03-22T23:50:27.030Z,101726.59
2019-03-22T23:52:56.531Z,101733.53
2019-03-22T23:55:26.079Z,101728.37
2019-03-22T23:57:55.558Z,101727.84
